Time;durP1;ratioP1;P1;durP2;ratioP2;P2;SDS_P1;SDS_P2;PMS_P1;PMS_P2;Temp;Humidity;BMP_temperature;BMP_pressure;BME280_temperature;BME280_humidity;BME280_pressure;Samples;Min_cycle;Max_cycle;Signal;HPM_P1;HPM_P2
2022/06/01 00:00:18;;;;;;;12.30;11.00;;;;;;;12.66;68.55;100701.91;685129;28;1294;-79
2022/06/01 00:00:39;;;;;;;11.60;10.40;;;;;;;12.64;68.46;100688.78;684921;28;1166;-79
2022/06/01 00:01:01;;;;;;;11.40;10.30;;;;;;;12.59;68.46;100679.94;685256;28;1315;-79
2022/06/01 00:01:22;;;;;;;11.10;10.10;;;;;;;12.67;68.72;100703.66;684752;28;1185;-79
2022/06/01 00:01:45;;;;;;;10.80;9.80;;;;;;;12.65;68.73;100700.16;685159;28;1509;-79
2022/06/01 00:02:07;;;;;;;10.75;9.75;;;;;;;12.63;68.40;100696.59;690245;28;1963;-79
2022/06/01 00:02:28;;;;;;;11.30;10.20;;;;;;;12.57;68.35;100686.91;690638;28;1199;-79
2022/06/01 00:02:48;;;;;;;10.93;9.82;;;;;;;12.61;68.65;100694.84;688063;28;1206;-80
2022/06/01 00:03:09;;;;;;;10.50;9.40;;;;;;;12.66;68.51;100704.53;687903;28;1442;-80
2022/06/01 00:03:32;;;;;;;10.18;9.18;;;;;;;12.56;68.18;100678.19;685169;28;1188;-79
2022/06/01 00:03:53;;;;;;;10.48;9.48;;;;;;;12.58;68.36;100683.41;689630;28;1185;-80
2022/06/01 00:04:20;;;;;;;10.97;9.87;;;;;;;12.59;68.41;100686.09;688017;28;1160;-79
2022/06/01 00:04:41;;;;;;;11.13;10.00;;;;;;;12.58;68.22;100683.41;686049;28;1098;-80
2022/06/01 00:05:03;;;;;;;11.30;10.20;;;;;;;12.57;68.35;100679.94;684576;28;1283;-80
2022/06/01 00:05:25;;;;;;;11.27;10.10;;;;;;;12.61;68.27;100684.38;682715;28;1714;-79
2022/06/01 00:05:45;;;;;;;11.63;9.77;;;;;;;12.59;68.52;100686.09;685194;28;823;-79
2022/06/01 00:06:06;;;;;;;11.68;9.80;;;;;;;12.66;68.15;100699.28;687555;28;1611;-79
2022/06/01 00:06:33;;;;;;;12.10;10.27;;;;;;;12.61;68.44;100691.34;682691;28;1125;-80
2022/06/01 00:06:56;;;;;;;11.10;10.00;;;;;;;12.63;67.90;100693.97;680339;29;1646;-80
2022/06/01 00:07:19;;;;;;;9.98;9.02;;;;;;;12.64;68.21;100699.25;681811;29;1113;-80
2022/06/01 00:07:39;;;;;;;9.52;8.63;;;;;;;12.60;68.24;100686.97;685299;28;820;-79
2022/06/01 00:08:00;;;;;;;9.60;8.70;;;;;;;12.60;68.15;100693.06;687663;28;1373;-80
2022/06/01 00:08:22;;;;;;;9.90;8.90;;;;;;;12.65;67.93;100700.16;685128;28;1082;-79
2022/06/01 00:08:42;;;;;;;9.65;8.65;;;;;;;12.65;68.17;100695.78;684974;28;1284;-79
2022/06/01 00:09:04;;;;;;;9.07;8.18;;;;;;;12.59;68.08;100696.56;682511;29;1152;-80
2022/06/01 00:09:24;;;;;;;8.68;7.88;;;;;;;12.56;68.32;100691.28;683032;28;1747;-80
2022/06/01 00:09:45;;;;;;;8.70;7.90;;;;;;;12.55;68.09;100688.63;682570;28;1228;-79
2022/06/01 00:10:06;;;;;;;8.50;7.70;;;;;;;12.53;67.80;100685.09;685214;28;1181;-80
2022/06/01 00:10:27;;;;;;;8.68;7.88;;;;;;;12.57;68.12;100697.38;685756;28;1282;-80
2022/06/01 00:10:48;;;;;;;8.52;7.72;;;;;;;12.60;68.15;100698.31;685497;28;1331;-80
2022/06/01 00:11:09;;;;;;;8.60;7.80;;;;;;;12.55;67.88;100692.09;683437;28;1024;-80
2022/06/01 00:11:31;;;;;;;8.40;7.60;;;;;;;12.59;67.94;100701.78;681518;29;1505;-79
2022/06/01 00:11:51;;;;;;;8.60;7.80;;;;;;;12.57;67.86;100698.25;682647;28;1103;-79
2022/06/01 00:12:12;;;;;;;8.60;7.80;;;;;;;12.55;67.96;100694.72;685195;28;1246;-79
2022/06/01 00:12:34;;;;;;;8.90;8.10;;;;;;;12.48;67.66;100682.41;685113;28;926;-79
2022/06/01 00:12:55;;;;;;;8.40;7.70;;;;;;;12.46;67.99;100684.97;689785;28;1115;-79
2022/06/01 00:13:16;;;;;;;8.50;7.75;;;;;;;12.51;67.61;100686.78;687884;28;1091;-80
2022/06/01 00:13:38;;;;;;;8.30;7.60;;;;;;;12.42;67.75;100691.00;687981;28;1228;-79
2022/06/01 00:13:59;;;;;;;8.65;7.85;;;;;;;12.42;67.97;100688.38;690497;28;1157;-80
2022/06/01 00:14:19;;;;;;;8.33;7.63;;;;;;;12.37;68.01;100692.66;685171;28;1076;-79
2022/06/01 00:14:40;;;;;;;8.40;7.60;;;;;;;12.34;68.04;100683.00;685203;28;1260;-79
2022/06/01 00:15:03;;;;;;;8.10;7.40;;;;;;;12.41;68.16;100704.06;685370;28;1281;-79
2022/06/01 00:15:25;;;;;;;8.27;7.47;;;;;;;12.37;67.90;100689.13;690401;28;1283;-80
2022/06/01 00:15:47;;;;;;;8.10;7.30;;;;;;;12.40;67.90;100697.06;690756;28;1213;-80
2022/06/01 00:16:08;;;;;;;8.45;7.50;;;;;;;12.36;67.86;100682.16;682515;29;1272;-80
2022/06/01 00:16:28;;;;;;;8.93;7.50;;;;;;;12.38;67.72;100696.13;682473;29;1206;-80
2022/06/01 00:16:55;;;;;;;9.00;7.30;;;;;;;12.34;67.85;100688.25;688778;28;1096;-80
2022/06/01 00:17:16;;;;;;;8.32;7.40;;;;;;;12.34;67.85;100684.72;687811;28;1314;-79
2022/06/01 00:17:36;;;;;;;8.27;7.47;;;;;;;12.30;67.88;100691.63;682447;28;977;-79
2022/06/01 00:17:58;;;;;;;7.80;7.10;;;;;;;12.29;67.94;100689.88;687284;28;1285;-80
2022/06/01 00:18:19;;;;;;;7.70;7.00;;;;;;;12.32;67.80;100697.81;686528;28;1266;-80
2022/06/01 00:18:40;;;;;;;8.02;7.20;;;;;;;12.28;67.80;100689.88;685270;28;1350;-80
2022/06/01 00:19:02;;;;;;;8.55;7.22;;;;;;;12.22;67.74;100687.97;682581;28;1448;-80
2022/06/01 00:19:29;;;;;;;8.40;7.30;;;;;;;12.23;67.86;100687.13;679980;29;864;-80
2022/06/01 00:19:49;;;;;;;8.25;7.50;;;;;;;12.22;67.93;100689.75;684267;28;1375;-79
2022/06/01 00:20:10;;;;;;;8.10;7.40;;;;;;;12.26;67.83;100708.13;684579;28;1127;-80
2022/06/01 00:20:31;;;;;;;8.40;7.60;;;;;;;12.19;67.96;100691.41;684933;28;1663;-80
2022/06/01 00:20:52;;;;;;;8.27;7.47;;;;;;;12.17;67.75;100684.41;682841;28;1187;-80
2022/06/01 00:21:13;;;;;;;8.48;7.68;;;;;;;12.16;67.81;100687.88;682500;28;1264;-80
2022/06/01 00:21:34;;;;;;;8.45;7.65;;;;;;;12.18;68.23;100694.03;685185;28;966;-80
2022/06/01 00:22:37;;;;;;;8.10;7.30;;;;;;;12.14;68.17;100692.19;682147;28;1161;-80
2022/06/01 00:22:58;;;;;;;8.27;7.38;;;;;;;12.13;67.89;100696.56;682319;29;1362;-82
2022/06/01 00:23:19;;;;;;;8.17;7.37;;;;;;;12.16;67.83;100701.84;680551;28;1515;-82
2022/06/01 00:23:40;;;;;;;8.25;7.40;;;;;;;12.12;68.02;100692.19;682586;28;1165;-82
2022/06/01 00:24:00;;;;;;;8.38;7.57;;;;;;;12.14;67.95;100692.19;684662;28;1237;-81
2022/06/01 00:24:21;;;;;;;8.00;7.20;;;;;;;12.12;67.95;100696.50;687787;28;1367;-81
2022/06/01 00:24:43;;;;;;;7.78;7.07;;;;;;;12.10;68.05;100686.00;687927;28;1346;-81
2022/06/01 00:25:07;;;;;;;7.93;7.22;;;;;;;12.10;67.78;100692.97;685184;28;1161;-82
2022/06/01 00:25:28;;;;;;;8.00;7.30;;;;;;;12.12;68.20;100694.78;685144;28;1258;-81
2022/06/01 00:25:48;;;;;;;8.05;7.35;;;;;;;12.11;67.92;100695.59;684573;28;1505;-81
2022/06/01 00:26:21;;;;;;;7.90;7.20;;;;;;;12.12;67.72;100693.91;687839;28;1130;-81
2022/06/01 00:26:42;;;;;;;8.38;7.57;;;;;;;12.20;67.78;100702.78;687931;28;905;-82
2022/06/01 00:27:03;;;;;;;8.50;7.70;;;;;;;12.18;67.90;100688.78;685516;28;1137;-82
2022/06/01 00:27:24;;;;;;;8.60;7.80;;;;;;;12.27;67.77;100699.44;687982;28;1353;-82
2022/06/01 00:27:45;;;;;;;8.50;7.70;;;;;;;12.23;67.44;100692.34;685126;28;1223;-82
2022/06/01 00:28:06;;;;;;;8.60;7.70;;;;;;;12.33;67.28;100704.78;686216;28;1154;-82
2022/06/01 00:28:26;;;;;;;8.75;7.85;;;;;;;12.27;67.44;100704.66;685189;28;1182;-80
2022/06/01 00:28:47;;;;;;;8.52;7.72;;;;;;;12.26;67.31;100687.22;687686;28;1211;-79
2022/06/01 00:29:07;;;;;;;8.43;7.63;;;;;;;12.26;67.48;100692.44;687775;28;1357;-80
2022/06/01 00:29:28;;;;;;;8.15;7.35;;;;;;;12.23;67.40;100692.34;687636;28;1057;-79
2022/06/01 00:29:48;;;;;;;11.50;7.80;;;;;;;12.19;67.43;100695.78;682169;28;1107;-79
2022/06/01 00:30:12;;;;;;;11.55;8.00;;;;;;;12.17;67.33;100695.75;687906;28;1168;-80
2022/06/01 00:30:33;;;;;;;12.07;8.20;;;;;;;12.14;67.49;100693.06;686375;28;1284;-80
2022/06/01 00:30:53;;;;;;;8.80;7.40;;;;;;;12.15;67.69;100699.19;687895;28;1327;-80
2022/06/01 00:31:14;;;;;;;8.90;7.50;;;;;;;12.15;67.51;100686.09;685106;28;1623;-80
2022/06/01 00:31:34;;;;;;;8.63;7.57;;;;;;;12.22;67.54;100706.28;682561;29;1133;-79
2022/06/01 00:32:18;;;;;;;8.57;7.73;;;;;;;12.21;67.56;100709.78;683977;28;1194;-80
2022/06/01 00:32:39;;;;;;;8.73;7.82;;;;;;;12.20;67.67;100703.66;682555;29;1333;-80
2022/06/01 00:32:59;;;;;;;8.55;7.70;;;;;;;12.11;67.63;100690.38;682759;28;1181;-80
2022/06/01 00:33:20;;;;;;;8.73;7.70;;;;;;;12.10;67.67;100686.00;685132;28;1207;-80
2022/06/01 00:33:42;;;;;;;9.60;7.80;;;;;;;12.09;67.78;100692.09;682589;28;1233;-80
2022/06/01 00:34:03;;;;;;;9.88;7.97;;;;;;;12.12;67.89;100697.41;679924;29;1199;-80
2022/06/01 00:34:24;;;;;;;8.68;7.60;;;;;;;12.14;67.78;100700.03;680029;29;971;-80
2022/06/01 00:34:45;;;;;;;8.40;7.60;;;;;;;12.06;67.90;100679.81;680195;29;1253;-80
2022/06/01 00:35:08;;;;;;;8.20;7.50;;;;;;;12.13;67.86;100703.50;685207;28;1180;-81
2022/06/01 00:35:29;;;;;;;8.77;7.97;;;;;;;12.18;67.83;100700.13;687792;28;1034;-80
2022/06/01 00:35:49;;;;;;;9.07;8.18;;;;;;;12.13;67.67;100695.66;687908;28;811;-80
2022/06/01 00:36:18;;;;;;;9.48;8.48;;;;;;;12.12;67.83;100688.66;684982;28;1650;-81
2022/06/01 00:36:38;;;;;;;9.13;8.13;;;;;;;12.15;67.85;100702.69;685234;28;792;-80
2022/06/01 00:37:00;;;;;;;8.80;7.90;;;;;;;12.13;67.69;100693.03;686292;28;1384;-80
2022/06/01 00:37:21;;;;;;;8.73;7.90;;;;;;;12.10;67.88;100690.38;687799;28;1259;-80
2022/06/01 00:37:41;;;;;;;8.60;7.80;;;;;;;12.11;67.65;100692.13;690643;28;1512;-80
2022/06/01 00:38:02;;;;;;;8.45;7.65;;;;;;;12.07;67.86;100685.97;690441;28;1308;-80
2022/06/01 00:38:22;;;;;;;8.20;7.40;;;;;;;12.14;67.97;100700.94;687984;28;977;-80
2022/06/01 00:38:43;;;;;;;8.23;7.43;;;;;;;12.12;67.83;100694.78;687861;28;1114;-80
2022/06/01 00:39:03;;;;;;;8.98;7.85;;;;;;;12.10;67.65;100695.59;685160;28;1107;-80
2022/06/01 00:39:24;;;;;;;10.20;8.30;;;;;;;12.08;68.01;100690.31;684926;28;1039;-80
2022/06/01 00:39:45;;;;;;;10.55;8.38;;;;;;;12.11;68.07;100695.59;681892;28;1302;-80
2022/06/01 00:40:07;;;;;;;9.40;8.25;;;;;;;12.10;67.63;100692.97;682354;28;1167;-80
2022/06/01 00:40:29;;;;;;;8.70;7.90;;;;;;;12.12;68.11;100697.41;685274;28;1046;-79
2022/06/01 00:40:50;;;;;;;8.63;7.82;;;;;;;12.08;67.88;100695.56;681383;28;1239;-80
2022/06/01 00:41:10;;;;;;;8.60;7.80;;;;;;;12.07;68.08;100689.44;685263;28;1089;-80
2022/06/01 00:41:31;;;;;;;8.70;7.80;;;;;;;12.11;68.00;100694.75;684357;28;1167;-80
2022/06/01 00:41:52;;;;;;;8.93;8.10;;;;;;;12.06;68.01;100687.66;685087;28;897;-80
2022/06/01 00:42:18;;;;;;;9.30;8.40;;;;;;;12.06;68.07;100685.06;685153;28;1968;-79
2022/06/01 00:42:41;;;;;;;9.85;8.85;;;;;;;12.11;68.34;100692.13;687864;28;1170;-80
2022/06/01 00:43:19;;;;;;;9.57;8.57;;;;;;;12.07;68.23;100686.81;687690;28;1347;-80
2022/06/01 00:43:44;;;;;;;10.63;8.73;;;;;;;12.11;68.12;100692.13;682045;29;931;-79
2022/06/01 00:44:05;;;;;;;10.73;8.70;;;;;;;12.05;68.20;100683.28;683968;28;1276;-80
2022/06/01 00:44:25;;;;;;;9.63;8.02;;;;;;;12.07;68.00;100686.81;690409;28;1202;-79
2022/06/01 00:44:48;;;;;;;9.20;8.00;;;;;;;12.12;68.19;100691.28;688250;28;1268;-80
2022/06/01 00:45:10;;;;;;;9.00;8.10;;;;;;;12.13;67.90;100698.28;685071;28;1203;-80
2022/06/01 00:45:31;;;;;;;9.25;8.35;;;;;;;12.05;68.01;100685.91;682358;28;1357;-80
2022/06/01 00:45:52;;;;;;;9.50;8.50;;;;;;;12.09;68.05;100688.63;682559;29;1231;-80
2022/06/01 00:46:13;;;;;;;9.70;8.70;;;;;;;12.12;68.36;100696.50;682537;29;1031;-80
2022/06/01 00:46:34;;;;;;;9.73;8.73;;;;;;;12.12;68.35;100699.13;682358;28;1293;-80
2022/06/01 00:46:54;;;;;;;9.30;8.40;;;;;;;12.11;68.21;100694.75;686728;28;1206;-79
2022/06/01 00:47:16;;;;;;;9.37;8.10;;;;;;;12.04;68.36;100689.38;687812;28;1060;-80
2022/06/01 00:47:37;;;;;;;10.50;8.10;;;;;;;12.02;68.16;100687.59;684874;28;1566;-80
2022/06/01 00:47:57;;;;;;;10.65;8.30;;;;;;;12.06;68.25;100695.53;687227;28;1241;-80
2022/06/01 00:48:22;;;;;;;9.60;8.53;;;;;;;12.04;68.35;100689.38;684512;28;1283;-79
2022/06/01 00:48:52;;;;;;;9.10;8.20;;;;;;;12.05;68.06;100687.66;687901;28;1606;-79
2022/06/01 00:49:20;;;;;;;8.90;8.00;;;;;;;12.04;68.18;100685.91;687771;28;1274;-79
2022/06/01 00:49:46;;;;;;;10.27;8.65;;;;;;;12.05;68.13;100691.16;681921;28;904;-79
2022/06/01 00:50:30;;;;;;;10.30;8.50;;;;;;;12.15;68.08;100705.31;684577;28;1235;-80
2022/06/01 00:50:51;;;;;;;9.23;8.32;;;;;;;12.10;67.96;100695.59;685721;28;1787;-80
2022/06/01 00:51:26;;;;;;;9.43;8.43;;;;;;;12.16;68.36;100707.06;687995;28;776;-80
2022/06/01 00:52:12;;;;;;;10.27;8.35;;;;;;;12.16;68.14;100704.44;685645;28;1103;-79
2022/06/01 00:52:36;;;;;;;9.30;8.30;;;;;;;12.07;67.99;100686.81;682144;28;1532;-80
2022/06/01 00:53:10;;;;;;;9.50;8.50;;;;;;;12.15;68.04;100700.06;687582;28;1220;-79
2022/06/01 00:53:35;;;;;;;9.50;8.50;;;;;;;12.09;68.30;100691.22;685069;28;1236;-79
2022/06/01 00:53:57;;;;;;;9.25;8.45;;;;;;;12.13;68.29;100700.88;687835;28;1361;-80
2022/06/01 00:54:18;;;;;;;9.90;8.60;;;;;;;12.12;68.00;100691.28;684910;28;1136;-79
2022/06/01 00:54:39;;;;;;;10.05;8.68;;;;;;;12.12;67.98;100699.13;685126;28;1287;-79
2022/06/01 00:55:12;;;;;;;10.45;9.00;;;;;;;12.13;68.20;100698.28;684768;28;1278;-79
2022/06/01 00:55:37;;;;;;;9.95;8.95;;;;;;;12.12;68.32;100697.41;687343;28;1592;-79
2022/06/01 00:56:05;;;;;;;10.10;9.10;;;;;;;12.19;68.06;100706.25;687641;28;1886;-79
2022/06/01 00:56:32;;;;;;;10.20;9.20;;;;;;;12.16;68.15;100700.97;684392;28;1104;-80
2022/06/01 00:57:00;;;;;;;9.80;8.90;;;;;;;12.17;68.22;100703.59;686603;28;1147;-79
2022/06/01 00:57:20;;;;;;;10.23;9.23;;;;;;;12.19;68.04;100707.13;690309;28;1185;-79
2022/06/01 00:57:42;;;;;;;10.52;9.43;;;;;;;12.21;68.25;100704.53;685189;28;1373;-79
2022/06/01 00:58:07;;;;;;;10.80;9.70;;;;;;;12.15;68.21;100693.94;682508;28;1167;-79
2022/06/01 00:58:36;;;;;;;10.70;9.60;;;;;;;12.20;67.97;100710.63;685222;28;969;-80
2022/06/01 00:59:00;;;;;;;10.48;9.40;;;;;;;12.18;68.29;100704.50;682515;28;868;-79
2022/06/01 00:59:24;;;;;;;10.38;9.38;;;;;;;12.23;67.94;100709.81;682447;29;1052;-80
2022/06/01 00:59:46;;;;;;;10.35;9.25;;;;;;;12.23;68.11;100708.06;682068;28;1980;-79
2022/06/01 01:00:20;;;;;;;9.50;8.60;;;;;;;12.21;68.17;100699.31;687878;28;1027;-78
2022/06/01 01:00:42;;;;;;;9.70;8.70;;;;;;;12.26;68.07;100702.00;689010;28;1587;-79
2022/06/01 01:01:05;;;;;;;9.90;8.90;;;;;;;12.25;67.75;100706.38;682191;28;1387;-80
2022/06/01 01:01:26;;;;;;;10.00;8.80;;;;;;;12.27;67.97;100706.38;687772;28;1219;-79
2022/06/01 01:01:48;;;;;;;10.27;9.18;;;;;;;12.32;68.24;100718.72;688409;28;1359;-79
2022/06/01 01:02:09;;;;;;;10.05;9.00;;;;;;;12.29;68.12;100713.41;687768;28;1977;-79
2022/06/01 01:02:30;;;;;;;9.98;8.98;;;;;;;12.26;67.87;100707.25;684929;28;1329;-79
2022/06/01 01:02:55;;;;;;;11.25;9.70;;;;;;;12.30;67.94;100706.47;687810;28;1142;-79
2022/06/01 01:03:17;;;;;;;11.23;9.82;;;;;;;12.30;68.09;100709.94;690557;28;964;-79
2022/06/01 01:03:41;;;;;;;12.00;9.50;;;;;;;12.32;68.04;100710.88;687843;28;1200;-79
2022/06/01 01:04:04;;;;;;;9.65;8.65;;;;;;;12.26;67.81;100696.78;682353;29;1205;-79
2022/06/01 01:04:27;;;;;;;9.60;8.60;;;;;;;12.24;67.83;100695.88;687811;28;877;-79
2022/06/01 01:04:47;;;;;;;10.30;9.30;;;;;;;12.31;67.80;100714.31;684947;28;1142;-79
2022/06/01 01:05:11;;;;;;;10.40;9.40;;;;;;;12.30;67.87;100707.34;682339;28;1185;-80
2022/06/01 01:05:33;;;;;;;10.23;9.05;;;;;;;12.25;67.90;100703.75;682401;29;989;-79
2022/06/01 01:06:14;;;;;;;10.20;9.10;;;;;;;12.33;67.77;100710.03;681932;29;1534;-80
2022/06/01 01:06:46;;;;;;;11.10;10.00;;;;;;;12.33;68.04;100706.50;684735;28;1334;-79
2022/06/01 01:07:12;;;;;;;10.02;9.13;;;;;;;12.30;67.73;100702.09;682476;29;1013;-79
2022/06/01 01:07:33;;;;;;;9.85;8.95;;;;;;;12.25;67.80;100690.69;685266;28;1006;-80
2022/06/01 01:07:56;;;;;;;10.00;9.10;;;;;;;12.30;67.86;100704.72;685271;28;811;-79
2022/06/01 01:08:17;;;;;;;10.13;9.13;;;;;;;12.25;67.69;100695.91;685027;28;1273;-79
2022/06/01 01:08:40;;;;;;;10.07;9.07;;;;;;;12.31;67.62;100709.09;687925;28;1165;-80
2022/06/01 01:09:08;;;;;;;9.80;8.90;;;;;;;12.28;67.84;100706.44;685029;28;2072;-79
2022/06/01 01:09:28;;;;;;;9.60;8.70;;;;;;;12.34;67.60;100710.91;684730;28;1253;-79
2022/06/01 01:09:49;;;;;;;9.80;8.85;;;;;;;12.28;67.84;100695.97;685666;28;1233;-79
2022/06/01 01:10:19;;;;;;;10.10;9.10;;;;;;;12.34;67.54;100705.66;687994;28;737;-79
2022/06/01 01:10:40;;;;;;;10.13;9.13;;;;;;;12.30;67.92;100701.22;681591;29;2092;-79
2022/06/01 01:11:01;;;;;;;10.18;9.18;;;;;;;12.29;67.65;100697.72;682374;28;1131;-79
2022/06/01 01:11:34;;;;;;;10.23;9.23;;;;;;;12.30;67.79;100693.38;682331;29;1101;-80
2022/06/01 01:11:59;;;;;;;10.60;9.60;;;;;;;12.33;67.67;100698.66;681526;29;1250;-79
2022/06/01 01:12:20;;;;;;;10.73;9.63;;;;;;;12.30;67.82;100699.47;682596;28;1073;-79
2022/06/01 01:12:56;;;;;;;11.00;9.90;;;;;;;12.32;67.85;100705.66;682462;28;847;-79
2022/06/01 01:13:17;;;;;;;10.90;9.90;;;;;;;12.29;67.87;100691.63;682246;29;1134;-79
2022/06/01 01:13:41;;;;;;;10.30;9.40;;;;;;;12.35;67.70;100699.56;685137;28;1028;-79
2022/06/01 01:14:07;;;;;;;10.15;9.25;;;;;;;12.32;67.66;100703.03;683402;28;1473;-80
2022/06/01 01:14:43;;;;;;;10.40;9.40;;;;;;;12.30;67.68;100694.25;685176;28;1219;-79
2022/06/01 01:15:05;;;;;;;10.10;9.10;;;;;;;12.32;67.74;100700.41;682355;29;1116;-79
2022/06/01 01:15:30;;;;;;;9.52;8.63;;;;;;;12.32;67.71;100700.41;679826;29;1013;-79
2022/06/01 01:15:54;;;;;;;9.55;8.65;;;;;;;12.27;67.48;100688.97;681764;28;1073;-79
2022/06/01 01:16:16;;;;;;;9.57;8.68;;;;;;;12.31;67.77;100693.41;682456;28;1079;-79
2022/06/01 01:16:37;;;;;;;9.90;9.00;;;;;;;12.29;67.70;100691.63;681849;29;1809;-80
2022/06/01 01:16:59;;;;;;;10.33;9.30;;;;;;;12.27;67.66;100688.97;684266;28;1252;-79
2022/06/01 01:17:21;;;;;;;10.45;9.40;;;;;;;12.33;67.77;100693.44;682246;29;1188;-79
2022/06/01 01:17:42;;;;;;;10.90;9.80;;;;;;;12.27;67.62;100686.34;682535;29;807;-80
2022/06/01 01:18:10;;;;;;;10.82;9.82;;;;;;;12.32;67.76;100687.34;685051;28;1284;-79
2022/06/01 01:18:35;;;;;;;10.77;9.73;;;;;;;12.38;67.52;100701.38;684911;28;981;-79
2022/06/01 01:18:59;;;;;;;10.80;9.70;;;;;;;12.30;67.50;100685.53;684996;28;2076;-79
2022/06/01 01:19:46;;;;;;;10.43;9.43;;;;;;;12.31;67.65;100682.94;684858;28;1144;-79
2022/06/01 01:20:08;;;;;;;10.60;9.60;;;;;;;12.31;67.67;100688.16;684227;28;1725;-79
2022/06/01 01:20:28;;;;;;;10.75;9.60;;;;;;;12.38;67.48;100693.53;685099;28;1274;-79
2022/06/01 01:21:01;;;;;;;10.98;9.65;;;;;;;12.36;67.45;100692.63;686582;28;1133;-79
2022/06/01 01:21:50;;;;;;;10.95;9.90;;;;;;;12.40;67.54;100695.31;684752;28;985;-79
2022/06/01 01:22:39;;;;;;;10.52;9.52;;;;;;;12.41;67.61;100696.22;684959;28;1968;-79
2022/06/01 01:23:16;;;;;;;10.55;9.32;;;;;;;12.34;67.43;100684.72;684883;28;1197;-80
2022/06/01 01:23:46;;;;;;;10.50;9.38;;;;;;;12.42;67.56;100692.75;687855;28;874;-79
2022/06/01 01:24:37;;;;;;;10.75;9.65;;;;;;;12.33;67.70;100689.09;685982;28;1181;-79
2022/06/01 01:25:28;;;;;;;11.10;10.00;;;;;;;12.40;67.66;100700.56;687705;28;926;-79
2022/06/01 01:25:50;;;;;;;10.73;9.82;;;;;;;12.37;67.73;100692.66;687865;28;992;-79
2022/06/01 01:26:10;;;;;;;11.00;10.00;;;;;;;12.31;67.67;100687.28;687985;28;1218;-79
2022/06/01 01:26:34;;;;;;;11.25;9.93;;;;;;;12.36;67.65;100690.00;685164;28;1029;-79
2022/06/01 01:26:56;;;;;;;12.20;9.90;;;;;;;12.29;67.92;100681.16;686656;28;1154;-79
2022/06/01 01:27:17;;;;;;;12.05;10.15;;;;;;;12.34;68.14;100690.84;684392;28;1340;-79
2022/06/01 01:27:37;;;;;;;11.38;9.77;;;;;;;12.31;67.78;100685.53;685177;28;1155;-79
2022/06/01 01:28:18;;;;;;;11.27;9.95;;;;;;;12.33;67.78;100694.31;690275;28;1639;-79
2022/06/01 01:28:38;;;;;;;12.05;10.95;;;;;;;12.31;67.96;100682.94;689410;28;1308;-79
2022/06/01 01:28:59;;;;;;;11.37;10.37;;;;;;;12.32;67.49;100695.19;688475;28;1291;-79
2022/06/01 01:29:35;;;;;;;11.18;10.13;;;;;;;12.29;67.93;100687.25;685041;28;1116;-79
2022/06/01 01:29:56;;;;;;;11.43;10.10;;;;;;;12.28;67.95;100689.88;683924;28;1190;-80
2022/06/01 01:30:27;;;;;;;11.10;9.90;;;;;;;12.31;67.85;100693.41;687539;28;1226;-79
2022/06/01 01:30:58;;;;;;;11.68;9.88;;;;;;;12.30;67.83;100696.88;684602;28;1737;-79
2022/06/01 01:31:23;;;;;;;11.40;9.95;;;;;;;12.28;67.79;100693.34;682111;28;1015;-79
2022/06/01 01:31:44;;;;;;;11.10;10.00;;;;;;;12.25;67.77;100687.16;682731;28;1271;-79
2022/06/01 01:32:07;;;;;;;11.10;10.00;;;;;;;12.24;67.69;100686.31;687883;28;1184;-79
2022/06/01 01:32:28;;;;;;;11.02;9.90;;;;;;;12.28;67.99;100689.88;687754;28;1009;-79
2022/06/01 01:32:48;;;;;;;10.60;9.50;;;;;;;12.23;68.03;100687.13;685067;28;1222;-79
2022/06/01 01:33:14;;;;;;;10.40;9.30;;;;;;;12.20;67.93;100692.31;687895;28;1087;-79
2022/06/01 01:33:35;;;;;;;10.30;9.30;;;;;;;12.26;67.64;100697.69;687512;28;1265;-79
2022/06/01 01:33:56;;;;;;;10.73;9.63;;;;;;;12.27;68.00;100698.53;687515;28;1224;-79
2022/06/01 01:34:17;;;;;;;11.00;9.90;;;;;;;12.24;68.03;100694.16;693128;28;1212;-79
2022/06/01 01:34:40;;;;;;;11.20;10.10;;;;;;;12.26;67.67;100696.78;690540;28;807;-79
2022/06/01 01:35:00;;;;;;;11.20;10.10;;;;;;;12.20;67.65;100690.59;685081;28;1150;-79
2022/06/01 01:35:21;;;;;;;10.93;9.83;;;;;;;12.16;67.61;100685.28;682481;28;1191;-79
2022/06/01 01:35:46;;;;;;;10.80;9.70;;;;;;;12.17;67.87;100693.13;682370;29;1806;-79
2022/06/01 01:36:09;;;;;;;10.45;9.45;;;;;;;12.22;67.78;100694.97;680940;29;1033;-79
2022/06/01 01:36:35;;;;;;;10.73;9.68;;;;;;;12.20;67.72;100697.53;682286;29;1244;-79
2022/06/01 01:37:01;;;;;;;10.75;9.70;;;;;;;12.16;68.01;100693.13;684206;28;1208;-79
2022/06/01 01:37:27;;;;;;;10.82;9.73;;;;;;;12.08;67.77;100679.88;690357;28;1315;-79
2022/06/01 01:37:51;;;;;;;11.20;10.10;;;;;;;12.06;67.91;100679.81;685221;28;1080;-79
2022/06/01 01:38:31;;;;;;;11.15;10.05;;;;;;;12.12;67.89;100696.50;682567;29;1119;-80
2022/06/01 01:39:07;;;;;;;10.43;9.43;;;;;;;12.03;68.17;100690.25;686263;28;1154;-79
2022/06/01 01:39:31;;;;;;;10.50;9.50;;;;;;;12.05;67.81;100693.75;687478;28;1124;-79
2022/06/01 01:39:54;;;;;;;10.82;9.70;;;;;;;12.01;68.00;100685.81;688601;28;1280;-79
2022/06/01 01:40:15;;;;;;;10.65;9.55;;;;;;;12.00;67.59;100690.19;686850;28;1509;-78
2022/06/01 01:40:36;;;;;;;10.82;9.70;;;;;;;12.03;67.66;100694.56;679944;29;1161;-79
2022/06/01 01:41:02;;;;;;;10.77;9.68;;;;;;;11.99;67.77;100691.00;682319;29;1155;-79
2022/06/01 01:41:33;;;;;;;10.60;9.50;;;;;;;11.95;67.79;100690.91;685103;28;943;-79
2022/06/01 01:41:54;;;;;;;10.90;9.75;;;;;;;11.91;68.24;100695.19;685320;28;1109;-79
2022/06/01 01:42:15;;;;;;;11.15;10.05;;;;;;;11.85;67.93;100679.41;685120;28;1915;-79
2022/06/01 01:42:36;;;;;;;11.93;10.73;;;;;;;11.93;68.05;100694.38;690428;28;1915;-79
2022/06/01 01:43:00;;;;;;;12.00;10.63;;;;;;;11.92;68.17;100696.97;687618;28;1245;-79
2022/06/01 01:43:21;;;;;;;12.75;10.50;;;;;;;11.85;68.19;100688.13;687615;28;1125;-79
2022/06/01 01:43:51;;;;;;;13.15;10.30;;;;;;;11.86;68.10;100687.25;684679;28;1829;-79
2022/06/01 01:44:15;;;;;;;11.30;10.10;;;;;;;11.83;68.24;100681.09;687747;28;1020;-79
2022/06/01 01:44:47;;;;;;;11.40;10.30;;;;;;;11.89;68.23;100687.34;682327;29;1108;-79
2022/06/01 01:45:16;;;;;;;11.60;10.50;;;;;;;11.81;68.26;100682.78;685019;28;1104;-79
2022/06/01 01:45:37;;;;;;;11.63;10.50;;;;;;;11.79;68.38;100683.63;685067;28;902;-79
2022/06/01 01:45:58;;;;;;;11.60;10.40;;;;;;;11.79;68.34;100685.34;682418;29;1253;-79
2022/06/01 01:46:19;;;;;;;11.63;10.50;;;;;;;11.81;68.19;100686.28;682247;28;1186;-79
2022/06/01 01:46:42;;;;;;;11.50;10.40;;;;;;;11.79;68.36;100685.34;680271;29;1370;-79
2022/06/01 01:47:04;;;;;;;11.45;10.35;;;;;;;11.82;68.58;100695.91;684634;28;1358;-79
2022/06/01 01:47:24;;;;;;;11.07;10.07;;;;;;;11.81;68.45;100688.00;682335;29;1223;-79
2022/06/01 01:47:45;;;;;;;10.93;9.93;;;;;;;11.75;68.29;100679.19;680510;28;1210;-79
2022/06/01 01:48:06;;;;;;;10.87;9.80;;;;;;;11.78;68.29;100688.81;685058;28;1142;-79
2022/06/01 01:48:26;;;;;;;10.93;9.88;;;;;;;11.75;68.11;100689.63;683193;28;1171;-79
2022/06/01 01:48:47;;;;;;;11.35;10.25;;;;;;;11.81;68.20;100693.25;683545;28;1230;-79
2022/06/01 01:49:08;;;;;;;11.95;10.75;;;;;;;11.73;68.42;100686.13;685350;28;1260;-79
2022/06/01 01:49:33;;;;;;;11.85;10.65;;;;;;;11.69;68.26;100679.06;687321;28;1199;-79
2022/06/01 01:49:54;;;;;;;11.95;10.85;;;;;;;11.72;68.42;100689.59;688652;28;1313;-81
2022/06/01 01:50:14;;;;;;;12.23;11.03;;;;;;;11.74;68.45;100698.34;685031;28;1247;-81
2022/06/01 01:50:35;;;;;;;12.23;11.02;;;;;;;11.68;68.54;100686.88;685145;28;950;-79
2022/06/01 01:50:56;;;;;;;12.70;11.05;;;;;;;11.64;68.75;100685.88;689590;28;1217;-80
2022/06/01 01:51:21;;;;;;;12.43;10.93;;;;;;;11.71;68.58;100698.28;690269;28;1311;-79
2022/06/01 01:51:43;;;;;;;12.48;11.20;;;;;;;11.62;68.53;100679.75;684256;28;2040;-79
2022/06/01 01:52:09;;;;;;;12.85;11.55;;;;;;;11.71;68.63;100695.66;682361;29;1249;-79
2022/06/01 01:52:29;;;;;;;13.60;11.90;;;;;;;11.63;68.38;100681.50;685054;28;985;-79
2022/06/01 01:52:51;;;;;;;12.90;11.50;;;;;;;11.69;68.50;100694.75;687641;28;1245;-79
2022/06/01 01:53:11;;;;;;;13.27;11.88;;;;;;;11.61;68.54;100680.59;684974;28;1063;-79
2022/06/01 01:53:33;;;;;;;12.83;11.53;;;;;;;11.64;68.54;100686.78;682098;29;1408;-79